Terminal Aerodrome Forecast
Issued by NWS

Home | Current Version | Previous Version | Text Only | Print | Product List | Glossary On
Versions: 1 2 3 4 5 6 7 8 9 10 11 12 13 14 15
000
FTAK31 PAJN 211737
TAFAYA
TAF
PAYA 211737Z 2118/2218 09003KT P6SM VCSH OVC045
     FM220000 12005KT P6SM SCT060 BKN070
     FM220300 07004KT P6SM SCT070
      AMD LTD TO CLD VIS AND WIND=

USA.gov is the U.S. government's official web portal to all federal, state and local government web resources and services.